createdAt,value
2022-11-21T00:01:35.124Z,26.83
2022-11-21T00:04:02.580Z,21.47
2022-11-21T00:06:29.955Z,19.33
2022-11-21T00:08:57.297Z,24.00
2022-11-21T00:11:24.672Z,19.73
2022-11-21T00:13:52.063Z,23.47
2022-11-21T00:16:19.491Z,19.43
2022-11-21T00:18:46.832Z,28.60
2022-11-21T00:21:16.719Z,21.97
2022-11-21T00:23:45.664Z,22.13
2022-11-21T00:26:14.652Z,20.60
2022-11-21T00:28:42.223Z,19.87
2022-11-21T00:31:17.808Z,22.03
2022-11-21T00:33:45.099Z,21.63
2022-11-21T00:36:12.460Z,24.90
2022-11-21T00:38:39.876Z,21.80
2022-11-21T00:41:07.251Z,19.93
2022-11-21T00:43:34.876Z,26.43
2022-11-21T00:46:03.308Z,27.73
2022-11-21T00:48:32.150Z,20.97
2022-11-21T00:51:00.970Z,31.50
2022-11-21T00:53:29.147Z,20.80
2022-11-21T00:55:56.788Z,23.23
2022-11-21T00:58:24.197Z,30.40
2022-11-21T01:00:51.834Z,22.27
2022-11-21T01:03:19.511Z,24.77
2022-11-21T01:05:47.057Z,26.43
2022-11-21T01:08:14.449Z,24.37
2022-11-21T01:10:41.814Z,24.13
2022-11-21T01:13:09.227Z,30.57
2022-11-21T01:15:36.599Z,25.80
2022-11-21T01:18:04.099Z,23.87
2022-11-21T01:20:31.469Z,21.73
2022-11-21T01:22:58.905Z,20.50
2022-11-21T01:25:26.324Z,21.80
2022-11-21T01:27:53.668Z,25.10
2022-11-21T01:30:21.056Z,21.80
2022-11-21T01:32:50.105Z,24.13
2022-11-21T01:35:18.068Z,24.90
2022-11-21T01:37:49.081Z,20.37
2022-11-21T01:40:16.891Z,21.63
2022-11-21T01:42:57.468Z,25.43
2022-11-21T01:46:13.081Z,26.20
2022-11-21T01:49:10.912Z,15.50
2022-11-21T01:52:01.284Z,19.10
2022-11-21T01:54:37.846Z,24.43
2022-11-21T01:57:31.269Z,21.20
2022-11-21T02:00:11.592Z,22.93
2022-11-21T02:02:47.535Z,21.87
2022-11-21T02:05:20.810Z,20.30
2022-11-21T02:07:49.735Z,24.67
2022-11-21T02:10:17.657Z,18.70
2022-11-21T02:12:51.395Z,17.23
2022-11-21T02:15:23.882Z,24.03
2022-11-21T02:17:51.226Z,21.87
2022-11-21T02:20:24.772Z,21.47
2022-11-21T02:23:20.989Z,22.97
2022-11-21T02:25:48.384Z,21.20
2022-11-21T02:28:18.367Z,21.03
2022-11-21T02:30:46.640Z,17.53
2022-11-21T02:33:14.096Z,22.37
2022-11-21T02:35:41.998Z,19.10
2022-11-21T02:38:30.709Z,23.47
2022-11-21T02:41:26.821Z,18.87
2022-11-21T02:44:09.268Z,22.00
2022-11-21T02:46:36.766Z,20.50
2022-11-21T02:49:08.300Z,18.53
2022-11-21T02:51:35.675Z,23.83
2022-11-21T02:54:03.231Z,18.77
2022-11-21T02:56:30.839Z,22.67
2022-11-21T02:58:58.599Z,21.23
2022-11-21T03:01:26.078Z,19.43
2022-11-21T03:03:53.533Z,20.83
2022-11-21T03:09:37.588Z,23.03
2022-11-21T03:12:10.017Z,20.30
2022-11-21T03:14:37.690Z,17.83
2022-11-21T03:17:05.576Z,23.77
2022-11-21T03:19:33.116Z,22.67
2022-11-21T03:22:00.799Z,15.67
2022-11-21T03:24:28.436Z,17.03
2022-11-21T03:26:56.042Z,14.90
2022-11-21T03:29:23.442Z,17.60
2022-11-21T03:31:50.874Z,20.17
2022-11-21T03:34:18.233Z,19.63
2022-11-21T03:36:45.600Z,21.53
2022-11-21T03:39:13.401Z,17.13
2022-11-21T03:41:40.807Z,19.40
2022-11-21T03:44:11.058Z,19.77
2022-11-21T03:46:41.502Z,15.77
2022-11-21T03:49:09.542Z,16.00
2022-11-21T03:51:38.162Z,24.40
2022-11-21T03:54:06.768Z,20.03
2022-11-21T03:56:34.666Z,20.17
2022-11-21T03:59:02.311Z,15.17
2022-11-21T04:01:35.224Z,18.73
2022-11-21T04:04:04.512Z,12.70
2022-11-21T04:06:32.417Z,16.73
2022-11-21T04:08:59.899Z,18.07
2022-11-21T04:11:27.309Z,14.90
2022-11-21T04:13:54.635Z,14.53
2022-11-21T04:16:22.018Z,15.63
2022-11-21T04:18:49.412Z,17.20
2022-11-21T04:21:16.782Z,13.83
2022-11-21T04:23:44.167Z,17.83
2022-11-21T04:26:11.682Z,14.57
2022-11-21T04:28:39.160Z,19.00
2022-11-21T04:31:10.759Z,20.57
2022-11-21T04:33:39.791Z,13.67
2022-11-21T04:36:08.593Z,14.33
2022-11-21T04:38:37.035Z,17.50
2022-11-21T04:41:05.088Z,18.83
2022-11-21T04:43:32.477Z,15.20
2022-11-21T04:45:59.840Z,15.07
2022-11-21T04:48:27.162Z,20.67
2022-11-21T04:50:54.520Z,15.30
2022-11-21T04:53:21.889Z,13.07
2022-11-21T04:55:49.443Z,12.27
2022-11-21T04:58:17.905Z,13.47
2022-11-21T05:00:45.266Z,14.27
2022-11-21T05:03:12.644Z,15.57
2022-11-21T05:05:40.243Z,10.57
2022-11-21T05:08:07.656Z,13.43
2022-11-21T05:10:55.029Z,8.73
2022-11-21T05:13:22.410Z,13.30
2022-11-21T05:15:55.985Z,12.03
2022-11-21T05:18:23.596Z,11.40
2022-11-21T05:20:50.986Z,10.97
2022-11-21T05:23:18.336Z,10.23
2022-11-21T05:25:45.739Z,10.50
2022-11-21T05:28:13.051Z,12.20
2022-11-21T05:30:40.451Z,11.10
2022-11-21T05:33:07.827Z,10.70
2022-11-21T05:35:40.139Z,10.27
2022-11-21T05:38:10.332Z,13.20
2022-11-21T05:40:37.770Z,10.83
2022-11-21T05:43:23.911Z,12.57
2022-11-21T05:45:51.834Z,14.00
2022-11-21T05:48:19.182Z,15.23
2022-11-21T05:50:50.175Z,12.07
2022-11-21T05:53:17.767Z,15.03
2022-11-21T05:55:45.383Z,16.83
2022-11-21T05:58:13.283Z,11.97
2022-11-21T06:00:40.664Z,16.87
2022-11-21T06:03:28.379Z,20.70
2022-11-21T06:06:07.359Z,17.30
2022-11-21T06:08:39.800Z,17.07
2022-11-21T06:11:09.026Z,15.73
2022-11-21T06:13:37.147Z,17.27
2022-11-21T06:16:16.375Z,13.97
2022-11-21T06:18:45.523Z,16.47
2022-11-21T06:21:15.509Z,14.23
2022-11-21T06:23:43.651Z,15.87
2022-11-21T06:26:16.319Z,12.63
2022-11-21T06:28:47.471Z,12.20
2022-11-21T06:31:17.434Z,15.50
2022-11-21T06:33:45.670Z,16.67
2022-11-21T06:36:15.772Z,11.10
2022-11-21T06:38:44.491Z,13.33
2022-11-21T06:41:20.391Z,12.93
2022-11-21T06:43:48.175Z,11.77
2022-11-21T06:46:16.453Z,11.87
2022-11-21T06:48:44.365Z,12.37
2022-11-21T06:51:17.342Z,12.73
2022-11-21T06:53:45.828Z,14.10
2022-11-21T06:56:14.908Z,17.43
2022-11-21T06:58:42.387Z,17.17
2022-11-21T07:01:10.865Z,13.07
2022-11-21T07:03:38.270Z,13.97
2022-11-21T07:06:06.617Z,10.60
2022-11-21T07:08:36.243Z,14.93
2022-11-21T07:13:53.934Z,13.07
2022-11-21T07:16:21.599Z,13.70
2022-11-21T07:18:49.744Z,12.40
2022-11-21T07:21:17.452Z,13.57
2022-11-21T07:23:45.029Z,13.63
2022-11-21T07:26:12.641Z,14.47
2022-11-21T07:28:40.075Z,12.50
2022-11-21T07:31:13.545Z,14.67
2022-11-21T07:33:43.620Z,18.63
2022-11-21T07:36:12.827Z,13.13
2022-11-21T07:38:41.647Z,18.23
2022-11-21T07:41:10.220Z,14.97
2022-11-21T07:43:37.767Z,17.40
2022-11-21T07:46:05.175Z,16.70
2022-11-21T07:48:32.590Z,18.17
2022-11-21T07:51:04.320Z,16.83
2022-11-21T07:53:31.664Z,15.13
2022-11-21T07:55:59.971Z,16.97
2022-11-21T07:58:27.651Z,16.13
2022-11-21T08:00:55.176Z,16.50
2022-11-21T08:03:23.052Z,15.00
2022-11-21T08:05:50.455Z,16.20
2022-11-21T08:08:17.789Z,15.47
2022-11-21T08:10:47.298Z,13.70
2022-11-21T08:13:15.015Z,17.93
2022-11-21T08:15:42.432Z,14.27
2022-11-21T08:18:11.720Z,16.73
2022-11-21T08:20:39.514Z,17.03
2022-11-21T08:23:07.799Z,16.93
2022-11-21T08:25:37.663Z,13.67
2022-11-21T08:28:06.013Z,16.23
2022-11-21T08:30:34.848Z,12.70
2022-11-21T08:33:03.364Z,15.90
2022-11-21T08:35:30.891Z,14.37
2022-11-21T08:38:01.736Z,16.03
2022-11-21T08:40:30.602Z,14.57
2022-11-21T08:43:02.536Z,16.80
2022-11-21T08:45:30.724Z,15.45
2022-11-21T08:47:58.175Z,13.67
2022-11-21T08:50:26.438Z,19.20
2022-11-21T08:52:59.000Z,16.23
2022-11-21T08:55:26.392Z,20.63
2022-11-21T08:57:53.780Z,18.37
2022-11-21T09:00:21.287Z,18.20
2022-11-21T09:02:48.604Z,17.07
2022-11-21T09:05:17.137Z,16.03
2022-11-21T09:07:45.198Z,14.37
2022-11-21T09:10:12.972Z,18.47
2022-11-21T09:12:41.717Z,16.03
2022-11-21T09:15:29.065Z,17.30
2022-11-21T09:18:04.177Z,18.07
2022-11-21T09:20:34.163Z,15.40
2022-11-21T09:23:09.883Z,20.63
2022-11-21T09:25:37.524Z,19.77
2022-11-21T09:28:07.298Z,17.20
2022-11-21T09:30:35.183Z,16.77
2022-11-21T09:33:03.755Z,17.77
2022-11-21T09:35:31.476Z,19.57
2022-11-21T09:37:59.081Z,19.30
2022-11-21T09:40:28.972Z,17.53
2022-11-21T09:43:36.069Z,14.87
2022-11-21T09:46:10.950Z,17.57
2022-11-21T09:48:54.249Z,22.30
2022-11-21T09:51:23.831Z,24.10
2022-11-21T09:54:05.579Z,19.90
2022-11-21T09:56:37.923Z,19.55
2022-11-21T09:59:39.122Z,16.37
2022-11-21T10:02:18.460Z,13.33
2022-11-21T10:04:47.280Z,19.43
2022-11-21T10:07:29.521Z,17.13
2022-11-21T10:13:18.380Z,15.77
2022-11-21T10:16:05.990Z,18.38
2022-11-21T10:19:02.499Z,26.10
2022-11-21T10:21:51.394Z,14.17
2022-11-21T10:24:43.911Z,33.07
2022-11-21T10:27:27.430Z,17.37
2022-11-21T10:30:02.385Z,13.90
2022-11-21T10:32:39.297Z,32.13
2022-11-21T10:35:29.264Z,22.77
2022-11-21T10:38:00.402Z,26.03
2022-11-21T10:40:44.310Z,25.50
2022-11-21T10:43:58.707Z,17.80
2022-11-21T10:46:26.098Z,23.80
2022-11-21T10:48:59.559Z,12.10
2022-11-21T10:51:43.664Z,19.57
2022-11-21T10:54:31.837Z,12.77
2022-11-21T10:57:20.059Z,14.40
2022-11-21T11:00:00.220Z,20.47
2022-11-21T11:02:28.072Z,17.43
2022-11-21T11:05:22.012Z,13.37
2022-11-21T11:08:02.883Z,19.30
2022-11-21T11:10:33.313Z,13.27
2022-11-21T11:16:18.357Z,12.40
2022-11-21T11:19:08.707Z,17.33
2022-11-21T11:21:44.585Z,13.90
2022-11-21T11:24:26.064Z,16.37
2022-11-21T11:26:58.938Z,13.32
2022-11-21T11:29:31.100Z,16.47
2022-11-21T11:32:06.481Z,13.90
2022-11-21T11:34:40.216Z,13.03
2022-11-21T11:37:20.472Z,12.53
2022-11-21T11:40:18.906Z,14.43
2022-11-21T11:43:41.326Z,13.03
2022-11-21T11:47:02.851Z,12.35
2022-11-21T11:50:07.253Z,11.27
2022-11-21T11:52:43.354Z,12.80
2022-11-21T11:55:35.374Z,11.47
2022-11-21T11:58:06.688Z,10.35
2022-11-21T12:00:45.712Z,14.45
2022-11-21T12:03:21.412Z,12.67
2022-11-21T12:05:59.381Z,11.40
2022-11-21T12:08:42.744Z,12.10
2022-11-21T12:11:47.372Z,11.63
2022-11-21T12:15:14.984Z,11.17
2022-11-21T12:18:30.419Z,9.67
2022-11-21T12:21:21.135Z,12.87
2022-11-21T12:24:08.077Z,10.00
2022-11-21T12:27:04.338Z,11.50
2022-11-21T12:30:08.975Z,9.67
2022-11-21T12:33:09.916Z,10.77
2022-11-21T12:36:17.484Z,10.33
2022-11-21T12:39:29.751Z,8.23
2022-11-21T12:42:41.600Z,8.07
2022-11-21T12:45:47.289Z,10.23
2022-11-21T12:48:40.172Z,7.97
2022-11-21T12:52:04.135Z,8.47
2022-11-21T12:55:00.780Z,13.13
2022-11-21T12:57:57.934Z,9.97
2022-11-21T13:01:10.204Z,11.07
2022-11-21T13:03:40.539Z,12.65
2022-11-21T13:06:19.364Z,9.57
2022-11-21T13:08:48.729Z,8.33
2022-11-21T13:12:01.658Z,13.83
2022-11-21T13:14:52.664Z,15.23
2022-11-21T13:17:56.037Z,12.87
2022-11-21T13:20:39.495Z,14.10
2022-11-21T13:23:43.344Z,11.23
2022-11-21T13:26:25.678Z,10.97
2022-11-21T13:31:41.693Z,9.37
2022-11-21T13:34:47.460Z,11.50
2022-11-21T13:38:10.353Z,8.83
2022-11-21T13:43:33.339Z,15.97
2022-11-21T13:46:01.518Z,10.67
2022-11-21T13:48:30.478Z,9.97
2022-11-21T13:51:35.241Z,12.07
2022-11-21T14:09:37.137Z,11.43
2022-11-21T14:12:21.593Z,14.47
2022-11-21T14:15:20.120Z,13.83
2022-11-21T14:18:01.279Z,12.23
2022-11-21T14:20:34.149Z,14.53
2022-11-21T14:23:21.865Z,11.67
2022-11-21T14:25:54.891Z,11.30
2022-11-21T14:28:30.154Z,9.80
2022-11-21T14:31:02.558Z,10.10
2022-11-21T14:33:37.719Z,12.90
2022-11-21T14:36:26.589Z,11.63
2022-11-21T14:41:49.749Z,14.67
2022-11-21T14:44:19.968Z,11.87
2022-11-21T14:46:48.592Z,10.67
2022-11-21T14:49:21.777Z,9.90
2022-11-21T14:52:12.332Z,13.87
2022-11-21T14:55:13.488Z,10.00
2022-11-21T14:57:42.636Z,13.67
2022-11-21T15:00:43.104Z,13.40
2022-11-21T15:03:04.584Z,11.27
2022-11-21T15:06:00.657Z,13.43
2022-11-21T15:09:14.838Z,14.83
2022-11-21T15:11:14.954Z,15.53
2022-11-21T15:16:36.731Z,15.90
2022-11-21T15:19:09.767Z,18.23
2022-11-21T15:21:37.407Z,15.73
2022-11-21T15:24:29.763Z,15.00
2022-11-21T15:29:25.076Z,19.87
2022-11-21T15:32:16.585Z,20.20
2022-11-21T15:34:44.366Z,21.70
2022-11-21T15:37:18.572Z,17.40
2022-11-21T15:39:48.683Z,21.10
2022-11-21T15:42:51.805Z,20.63
2022-11-21T15:45:25.834Z,24.60
2022-11-21T15:47:53.480Z,19.60
2022-11-21T15:50:23.637Z,18.37
2022-11-21T15:52:52.121Z,16.10
2022-11-21T15:55:29.663Z,17.80
2022-11-21T15:57:13.891Z,13.17
2022-11-21T15:57:56.980Z,22.27
2022-11-21T16:00:24.612Z,24.23
2022-11-21T16:02:52.505Z,18.47
2022-11-21T16:05:19.883Z,17.73
2022-11-21T16:07:48.466Z,20.47
2022-11-21T16:10:21.420Z,20.50
2022-11-21T16:12:53.523Z,17.73
2022-11-21T16:15:21.208Z,18.33
2022-11-21T16:17:48.584Z,17.53
2022-11-21T16:20:16.019Z,24.00
2022-11-21T16:22:47.723Z,20.33
2022-11-21T16:27:43.232Z,21.27
2022-11-21T16:30:11.886Z,20.97
2022-11-21T16:32:39.381Z,18.33
2022-11-21T16:35:07.158Z,16.83
2022-11-21T16:37:34.717Z,16.60
2022-11-21T16:40:02.082Z,16.60
2022-11-21T16:42:29.467Z,17.67
2022-11-21T16:44:56.836Z,17.67
2022-11-21T16:47:24.226Z,15.97
2022-11-21T16:49:51.621Z,13.90
2022-11-21T16:52:19.063Z,14.93
2022-11-21T16:54:47.212Z,14.77
2022-11-21T16:57:14.743Z,23.07
2022-11-21T16:59:42.069Z,15.67
2022-11-21T17:02:10.432Z,19.13
2022-11-21T17:04:37.993Z,19.33
2022-11-21T17:07:05.454Z,16.13
2022-11-21T17:09:32.926Z,22.57
2022-11-21T17:12:00.305Z,14.03
2022-11-21T17:14:28.001Z,14.87
2022-11-21T17:16:55.469Z,13.07
2022-11-21T17:19:23.256Z,17.87
2022-11-21T17:21:50.632Z,18.07
2022-11-21T17:24:18.447Z,13.63
2022-11-21T17:26:45.812Z,15.40
2022-11-21T17:29:13.185Z,15.40
2022-11-21T17:31:41.901Z,20.07
2022-11-21T17:34:09.399Z,16.27
2022-11-21T17:36:36.804Z,17.83
2022-11-21T17:39:06.415Z,14.80
2022-11-21T17:41:33.834Z,18.47
2022-11-21T17:44:01.688Z,18.57
2022-11-21T17:46:29.144Z,16.97
2022-11-21T17:48:58.796Z,17.07
2022-11-21T17:51:35.472Z,12.23
2022-11-21T17:54:02.981Z,14.97
2022-11-21T17:56:33.150Z,10.10
2022-11-21T17:59:00.821Z,13.50
2022-11-21T18:01:29.207Z,12.87
2022-11-21T18:04:01.886Z,10.93
2022-11-21T18:06:34.394Z,8.93
2022-11-21T18:09:02.602Z,14.43
2022-11-21T18:11:38.919Z,11.50
2022-11-21T18:14:08.009Z,12.57
2022-11-21T18:16:35.973Z,15.20
2022-11-21T18:19:03.494Z,16.30
2022-11-21T18:21:33.918Z,13.37
2022-11-21T18:24:01.314Z,11.33
2022-11-21T18:26:31.454Z,13.83
2022-11-21T18:29:28.578Z,14.37
2022-11-21T18:31:49.315Z,14.47
2022-11-21T18:34:16.978Z,13.87
2022-11-21T18:36:44.463Z,14.87
2022-11-21T18:39:15.154Z,14.97
2022-11-21T18:41:43.630Z,9.57
2022-11-21T18:44:12.676Z,11.77
2022-11-21T18:46:42.089Z,11.27
2022-11-21T18:49:09.637Z,14.50
2022-11-21T18:51:37.214Z,12.17
2022-11-21T18:54:08.720Z,17.03
2022-11-21T18:56:37.939Z,15.10
2022-11-21T18:59:06.642Z,9.27
2022-11-21T19:01:36.485Z,10.57
2022-11-21T19:04:04.219Z,14.07
2022-11-21T19:06:32.170Z,14.17
2022-11-21T19:08:59.910Z,11.60
2022-11-21T19:11:30.395Z,11.03
2022-11-21T19:14:00.388Z,15.60
2022-11-21T19:16:31.206Z,12.53
2022-11-21T19:19:33.104Z,18.33
2022-11-21T19:21:47.266Z,17.50
2022-11-21T19:24:15.423Z,15.97
2022-11-21T19:26:43.245Z,13.83
2022-11-21T19:29:10.924Z,12.87
2022-11-21T19:31:44.746Z,16.37
2022-11-21T19:34:14.580Z,16.93
2022-11-21T19:36:43.138Z,16.73
2022-11-21T19:39:11.158Z,14.30
2022-11-21T19:41:38.613Z,15.77
2022-11-21T19:44:05.968Z,16.20
2022-11-21T19:46:37.374Z,18.50
2022-11-21T19:49:06.258Z,18.25
2022-11-21T19:51:40.182Z,20.97
2022-11-21T19:54:09.059Z,15.33
2022-11-21T19:56:37.323Z,16.17
2022-11-21T19:59:05.194Z,15.17
2022-11-21T20:01:34.506Z,13.13
2022-11-21T20:04:04.114Z,16.23
2022-11-21T20:06:34.229Z,12.03
2022-11-21T20:09:07.842Z,15.13
2022-11-21T20:11:36.147Z,14.53
2022-11-21T20:14:03.839Z,15.00
2022-11-21T20:16:36.464Z,14.93
2022-11-21T20:19:07.031Z,16.23
2022-11-21T20:21:34.875Z,15.03
2022-11-21T20:24:02.428Z,12.90
2022-11-21T20:26:29.992Z,12.63
2022-11-21T20:28:57.339Z,14.97
2022-11-21T20:31:29.842Z,18.37
2022-11-21T20:34:00.850Z,21.30
2022-11-21T20:36:31.586Z,15.23
2022-11-21T20:39:07.413Z,13.43
2022-11-21T20:41:36.728Z,14.83
2022-11-21T20:46:53.974Z,12.80
2022-11-21T20:49:21.757Z,14.60
2022-11-21T20:54:37.072Z,13.43
2022-11-21T20:57:04.478Z,14.90
2022-11-21T20:59:32.341Z,13.97
2022-11-21T21:01:59.949Z,15.27
2022-11-21T21:04:27.358Z,12.63
2022-11-21T21:06:54.673Z,15.17
2022-11-21T21:09:22.012Z,15.50
2022-11-21T21:11:52.664Z,16.77
2022-11-21T21:14:21.991Z,15.52
2022-11-21T21:16:50.205Z,17.33
2022-11-21T21:19:18.167Z,17.13
2022-11-21T21:21:45.713Z,11.77
2022-11-21T21:24:13.980Z,13.40
2022-11-21T21:26:44.582Z,10.33
2022-11-21T21:29:14.224Z,13.13
2022-11-21T21:31:47.175Z,14.10
2022-11-21T21:34:18.954Z,11.17
2022-11-21T21:36:46.503Z,12.53
2022-11-21T21:39:14.155Z,13.83
2022-11-21T21:41:44.699Z,11.80
2022-11-21T21:44:12.690Z,9.47
2022-11-21T21:46:40.135Z,13.67
2022-11-21T21:49:08.067Z,9.87
2022-11-21T21:51:37.493Z,10.60
2022-11-21T21:54:06.357Z,11.93
2022-11-21T21:56:34.263Z,11.60
2022-11-21T21:59:01.784Z,10.40
2022-11-21T22:01:31.290Z,12.00
2022-11-21T22:04:01.073Z,9.47
2022-11-21T22:06:29.147Z,9.27
2022-11-21T22:08:56.651Z,12.63
2022-11-21T22:11:29.657Z,11.50
2022-11-21T22:14:02.654Z,13.20
2022-11-21T22:16:30.879Z,10.70
2022-11-21T22:18:58.718Z,11.77
2022-11-21T22:21:28.228Z,11.00
2022-11-21T22:26:45.242Z,8.20
2022-11-21T22:29:12.591Z,10.60
2022-11-21T22:31:40.016Z,10.80
2022-11-21T22:34:09.640Z,10.37
2022-11-21T22:36:37.527Z,12.23
2022-11-21T22:39:04.870Z,8.53
2022-11-21T22:41:32.496Z,11.30
2022-11-21T22:44:00.563Z,8.17
2022-11-21T22:46:29.850Z,12.50
2022-11-21T22:48:57.291Z,8.80
2022-11-21T22:51:27.141Z,8.83
2022-11-21T22:53:54.587Z,10.07
2022-11-21T22:56:24.059Z,6.93
2022-11-21T22:58:52.062Z,9.87
2022-11-21T23:01:22.244Z,9.43
2022-11-21T23:03:49.989Z,11.20
2022-11-21T23:06:23.814Z,11.97
2022-11-21T23:08:52.921Z,10.47
2022-11-21T23:11:26.419Z,10.43
2022-11-21T23:13:55.531Z,11.23
2022-11-21T23:16:23.813Z,15.93
2022-11-21T23:18:55.468Z,13.00
2022-11-21T23:21:23.206Z,10.57
2022-11-21T23:23:50.761Z,14.00
2022-11-21T23:26:18.585Z,15.47
2022-11-21T23:28:46.323Z,14.07
2022-11-21T23:31:14.252Z,12.50
2022-11-21T23:33:42.055Z,12.03
2022-11-21T23:36:09.397Z,11.83
2022-11-21T23:38:36.735Z,13.37
2022-11-21T23:41:04.172Z,11.87
2022-11-21T23:43:31.537Z,13.33
2022-11-21T23:45:58.957Z,12.23
2022-11-21T23:48:26.331Z,10.73
2022-11-21T23:50:54.036Z,12.30
2022-11-21T23:53:23.144Z,9.43
2022-11-21T23:55:50.532Z,7.83
2022-11-21T23:58:17.955Z,7.93
